sensor_id;sensor_type;location;lat;lon;timestamp;temperature;humidity
60717;DHT22;46566;52.700;6.192;2023-02-26T00:01:17;1.80;99.90
60717;DHT22;46566;52.700;6.192;2023-02-26T00:03:48;1.70;99.90
60717;DHT22;46566;52.700;6.192;2023-02-26T00:06:14;1.70;99.90
60717;DHT22;46566;52.700;6.192;2023-02-26T00:08:39;1.70;99.90
60717;DHT22;46566;52.700;6.192;2023-02-26T00:11:06;1.70;99.90
60717;DHT22;46566;52.700;6.192;2023-02-26T00:13:33;1.70;99.90
60717;DHT22;46566;52.700;6.192;2023-02-26T00:15:59;1.70;99.90
60717;DHT22;46566;52.700;6.192;2023-02-26T00:18:26;1.70;99.90
60717;DHT22;46566;52.700;6.192;2023-02-26T00:20:52;1.70;99.90
60717;DHT22;46566;52.700;6.192;2023-02-26T00:23:18;1.60;99.90
60717;DHT22;46566;52.700;6.192;2023-02-26T00:25:44;1.60;99.90
60717;DHT22;46566;52.700;6.192;2023-02-26T00:28:11;1.60;99.90
60717;DHT22;46566;52.700;6.192;2023-02-26T00:30:37;1.60;99.90
60717;DHT22;46566;52.700;6.192;2023-02-26T00:33:04;1.60;99.90
60717;DHT22;46566;52.700;6.192;2023-02-26T00:35:30;1.60;99.90
60717;DHT22;46566;52.700;6.192;2023-02-26T00:38:05;1.60;99.90
60717;DHT22;46566;52.700;6.192;2023-02-26T00:40:45;1.50;99.90
60717;DHT22;46566;52.700;6.192;2023-02-26T00:43:16;1.50;99.90
60717;DHT22;46566;52.700;6.192;2023-02-26T00:46:34;1.50;99.90
60717;DHT22;46566;52.700;6.192;2023-02-26T00:51:41;1.50;99.90
60717;DHT22;46566;52.700;6.192;2023-02-26T00:54:15;1.50;99.90
60717;DHT22;46566;52.700;6.192;2023-02-26T00:56:43;1.40;99.90
60717;DHT22;46566;52.700;6.192;2023-02-26T00:59:08;1.50;99.90
60717;DHT22;46566;52.700;6.192;2023-02-26T01:01:34;1.40;99.90
60717;DHT22;46566;52.700;6.192;2023-02-26T01:04:00;1.40;99.90
60717;DHT22;46566;52.700;6.192;2023-02-26T01:06:27;1.40;99.90
60717;DHT22;46566;52.700;6.192;2023-02-26T01:11:34;1.40;99.90
60717;DHT22;46566;52.700;6.192;2023-02-26T01:14:02;1.40;99.90
60717;DHT22;46566;52.700;6.192;2023-02-26T01:16:33;1.30;99.90
60717;DHT22;46566;52.700;6.192;2023-02-26T01:19:08;1.30;99.90
60717;DHT22;46566;52.700;6.192;2023-02-26T01:21:45;1.30;99.90
60717;DHT22;46566;52.700;6.192;2023-02-26T01:24:14;1.30;99.90
60717;DHT22;46566;52.700;6.192;2023-02-26T01:26:41;1.30;99.90
60717;DHT22;46566;52.700;6.192;2023-02-26T01:29:07;1.30;99.90
60717;DHT22;46566;52.700;6.192;2023-02-26T01:34:44;1.20;99.90
60717;DHT22;46566;52.700;6.192;2023-02-26T01:37:22;1.20;99.90
60717;DHT22;46566;52.700;6.192;2023-02-26T01:40:24;1.20;99.90
60717;DHT22;46566;52.700;6.192;2023-02-26T01:42:57;1.20;99.90
60717;DHT22;46566;52.700;6.192;2023-02-26T01:45:34;1.20;99.90
60717;DHT22;46566;52.700;6.192;2023-02-26T01:48:05;1.20;99.90
60717;DHT22;46566;52.700;6.192;2023-02-26T01:50:35;1.20;99.90
60717;DHT22;46566;52.700;6.192;2023-02-26T01:55:43;1.10;99.90
60717;DHT22;46566;52.700;6.192;2023-02-26T01:58:10;1.10;99.90
60717;DHT22;46566;52.700;6.192;2023-02-26T02:00:36;1.10;99.90
60717;DHT22;46566;52.700;6.192;2023-02-26T02:03:03;1.10;99.90
60717;DHT22;46566;52.700;6.192;2023-02-26T02:05:57;1.00;99.90
60717;DHT22;46566;52.700;6.192;2023-02-26T02:08:25;1.00;99.90
60717;DHT22;46566;52.700;6.192;2023-02-26T02:10:51;1.00;99.90
60717;DHT22;46566;52.700;6.192;2023-02-26T02:16:16;0.90;99.90
60717;DHT22;46566;52.700;6.192;2023-02-26T02:21:51;0.90;99.90
60717;DHT22;46566;52.700;6.192;2023-02-26T02:27:28;0.80;99.90
60717;DHT22;46566;52.700;6.192;2023-02-26T02:32:51;0.80;99.90
60717;DHT22;46566;52.700;6.192;2023-02-26T02:35:29;0.80;99.90
60717;DHT22;46566;52.700;6.192;2023-02-26T02:38:06;0.80;99.90
60717;DHT22;46566;52.700;6.192;2023-02-26T02:40:36;0.80;99.90
60717;DHT22;46566;52.700;6.192;2023-02-26T02:48:32;0.70;99.90
60717;DHT22;46566;52.700;6.192;2023-02-26T02:51:00;0.70;99.90
60717;DHT22;46566;52.700;6.192;2023-02-26T02:53:34;0.70;99.90
60717;DHT22;46566;52.700;6.192;2023-02-26T02:56:22;0.70;99.90
60717;DHT22;46566;52.700;6.192;2023-02-26T02:58:54;0.70;99.90
60717;DHT22;46566;52.700;6.192;2023-02-26T03:01:24;0.60;99.90
60717;DHT22;46566;52.700;6.192;2023-02-26T03:04:27;0.60;99.90
60717;DHT22;46566;52.700;6.192;2023-02-26T03:06:46;0.60;99.90
60717;DHT22;46566;52.700;6.192;2023-02-26T03:09:17;0.60;99.90
60717;DHT22;46566;52.700;6.192;2023-02-26T03:11:43;0.50;99.90
60717;DHT22;46566;52.700;6.192;2023-02-26T03:14:09;0.50;99.90
60717;DHT22;46566;52.700;6.192;2023-02-26T03:22:51;0.50;99.90
60717;DHT22;46566;52.700;6.192;2023-02-26T03:25:29;0.50;99.90
60717;DHT22;46566;52.700;6.192;2023-02-26T03:28:30;0.40;99.90
60717;DHT22;46566;52.700;6.192;2023-02-26T03:33:46;0.40;99.90
60717;DHT22;46566;52.700;6.192;2023-02-26T03:36:28;0.40;99.90
60717;DHT22;46566;52.700;6.192;2023-02-26T03:39:18;0.40;99.90
60717;DHT22;46566;52.700;6.192;2023-02-26T03:41:53;0.40;99.90
60717;DHT22;46566;52.700;6.192;2023-02-26T03:44:26;0.30;99.90
60717;DHT22;46566;52.700;6.192;2023-02-26T03:46:58;0.30;99.90
60717;DHT22;46566;52.700;6.192;2023-02-26T03:49:30;0.30;99.90
60717;DHT22;46566;52.700;6.192;2023-02-26T03:51:59;0.30;99.90
60717;DHT22;46566;52.700;6.192;2023-02-26T03:55:51;0.30;99.90
60717;DHT22;46566;52.700;6.192;2023-02-26T03:58:04;0.30;99.90
60717;DHT22;46566;52.700;6.192;2023-02-26T04:00:45;0.30;99.90
60717;DHT22;46566;52.700;6.192;2023-02-26T04:03:18;0.30;99.90
60717;DHT22;46566;52.700;6.192;2023-02-26T04:05:51;0.20;99.90
60717;DHT22;46566;52.700;6.192;2023-02-26T04:08:17;0.20;99.90
60717;DHT22;46566;52.700;6.192;2023-02-26T04:11:14;0.20;99.90
60717;DHT22;46566;52.700;6.192;2023-02-26T04:13:38;0.20;99.90
60717;DHT22;46566;52.700;6.192;2023-02-26T04:16:03;0.20;99.90
60717;DHT22;46566;52.700;6.192;2023-02-26T04:18:29;0.20;99.90
60717;DHT22;46566;52.700;6.192;2023-02-26T04:20:55;0.20;99.90
60717;DHT22;46566;52.700;6.192;2023-02-26T04:23:21;0.20;99.90
60717;DHT22;46566;52.700;6.192;2023-02-26T04:25:47;0.10;99.90
60717;DHT22;46566;52.700;6.192;2023-02-26T04:28:14;0.10;99.90
60717;DHT22;46566;52.700;6.192;2023-02-26T04:30:40;0.10;99.90
60717;DHT22;46566;52.700;6.192;2023-02-26T04:33:08;0.10;99.90
60717;DHT22;46566;52.700;6.192;2023-02-26T04:35:34;0.10;99.90
60717;DHT22;46566;52.700;6.192;2023-02-26T04:38:00;0.10;99.90
60717;DHT22;46566;52.700;6.192;2023-02-26T04:40:26;0.10;99.90
60717;DHT22;46566;52.700;6.192;2023-02-26T04:42:52;0.10;99.90
60717;DHT22;46566;52.700;6.192;2023-02-26T04:45:22;0.10;99.90
60717;DHT22;46566;52.700;6.192;2023-02-26T04:47:51;0.10;99.90
60717;DHT22;46566;52.700;6.192;2023-02-26T04:50:17;0.10;99.90
60717;DHT22;46566;52.700;6.192;2023-02-26T04:52:45;0.00;99.90
60717;DHT22;46566;52.700;6.192;2023-02-26T04:55:11;0.10;99.90
60717;DHT22;46566;52.700;6.192;2023-02-26T04:57:37;0.10;99.90
60717;DHT22;46566;52.700;6.192;2023-02-26T05:00:04;0.00;99.90
60717;DHT22;46566;52.700;6.192;2023-02-26T05:02:35;0.00;99.90
60717;DHT22;46566;52.700;6.192;2023-02-26T05:05:01;0.00;99.90
60717;DHT22;46566;52.700;6.192;2023-02-26T05:07:27;0.00;99.90
60717;DHT22;46566;52.700;6.192;2023-02-26T05:09:53;0.00;99.90
60717;DHT22;46566;52.700;6.192;2023-02-26T05:12:19;0.00;99.90
60717;DHT22;46566;52.700;6.192;2023-02-26T05:14:44;0.00;99.90
60717;DHT22;46566;52.700;6.192;2023-02-26T05:17:10;0.00;99.90
60717;DHT22;46566;52.700;6.192;2023-02-26T05:19:36;-0.10;99.90
60717;DHT22;46566;52.700;6.192;2023-02-26T05:22:01;-0.10;99.90
60717;DHT22;46566;52.700;6.192;2023-02-26T05:24:28;-0.10;99.90
60717;DHT22;46566;52.700;6.192;2023-02-26T05:26:54;-0.10;99.90
60717;DHT22;46566;52.700;6.192;2023-02-26T05:29:20;-0.10;99.90
60717;DHT22;46566;52.700;6.192;2023-02-26T05:31:45;-0.10;99.90
60717;DHT22;46566;52.700;6.192;2023-02-26T05:34:11;-0.10;99.90
60717;DHT22;46566;52.700;6.192;2023-02-26T05:36:37;-0.20;99.90
60717;DHT22;46566;52.700;6.192;2023-02-26T05:39:02;-0.10;99.90
60717;DHT22;46566;52.700;6.192;2023-02-26T05:41:28;-0.10;99.90
60717;DHT22;46566;52.700;6.192;2023-02-26T05:43:54;-0.20;99.90
60717;DHT22;46566;52.700;6.192;2023-02-26T05:46:19;-0.20;99.90
60717;DHT22;46566;52.700;6.192;2023-02-26T05:48:45;-0.20;99.90
60717;DHT22;46566;52.700;6.192;2023-02-26T05:51:11;-0.20;99.90
60717;DHT22;46566;52.700;6.192;2023-02-26T05:53:36;-0.20;99.90
60717;DHT22;46566;52.700;6.192;2023-02-26T05:56:02;-0.20;99.90
60717;DHT22;46566;52.700;6.192;2023-02-26T05:58:30;-0.20;99.90
60717;DHT22;46566;52.700;6.192;2023-02-26T06:00:59;-0.20;99.90
60717;DHT22;46566;52.700;6.192;2023-02-26T06:03:25;-0.30;99.90
60717;DHT22;46566;52.700;6.192;2023-02-26T06:05:50;-0.20;99.90
60717;DHT22;46566;52.700;6.192;2023-02-26T06:08:16;-0.20;99.90
60717;DHT22;46566;52.700;6.192;2023-02-26T06:10:42;-0.30;99.90
60717;DHT22;46566;52.700;6.192;2023-02-26T06:13:08;-0.30;99.90
60717;DHT22;46566;52.700;6.192;2023-02-26T06:15:34;-0.30;99.90
60717;DHT22;46566;52.700;6.192;2023-02-26T06:17:59;-0.30;99.90
60717;DHT22;46566;52.700;6.192;2023-02-26T06:20:25;-0.30;99.90
60717;DHT22;46566;52.700;6.192;2023-02-26T06:22:51;-0.30;99.90
60717;DHT22;46566;52.700;6.192;2023-02-26T06:25:16;-0.40;99.90
60717;DHT22;46566;52.700;6.192;2023-02-26T06:27:42;-0.40;99.90
60717;DHT22;46566;52.700;6.192;2023-02-26T06:30:08;-0.40;99.90
60717;DHT22;46566;52.700;6.192;2023-02-26T06:32:34;-0.40;99.90
60717;DHT22;46566;52.700;6.192;2023-02-26T06:35:00;-0.40;99.90
60717;DHT22;46566;52.700;6.192;2023-02-26T06:37:26;-0.50;99.90
60717;DHT22;46566;52.700;6.192;2023-02-26T06:39:52;-0.40;99.90
60717;DHT22;46566;52.700;6.192;2023-02-26T06:42:18;-0.50;99.90
60717;DHT22;46566;52.700;6.192;2023-02-26T06:44:43;-0.40;99.90
60717;DHT22;46566;52.700;6.192;2023-02-26T06:47:09;-0.50;99.90
60717;DHT22;46566;52.700;6.192;2023-02-26T06:49:34;-0.50;99.90
60717;DHT22;46566;52.700;6.192;2023-02-26T06:52:00;-0.50;99.90
60717;DHT22;46566;52.700;6.192;2023-02-26T06:54:26;-0.50;99.90
60717;DHT22;46566;52.700;6.192;2023-02-26T06:56:51;-0.50;99.90
60717;DHT22;46566;52.700;6.192;2023-02-26T06:59:17;-0.50;99.90
60717;DHT22;46566;52.700;6.192;2023-02-26T07:01:43;-0.50;99.90
60717;DHT22;46566;52.700;6.192;2023-02-26T07:04:08;-0.50;99.90
60717;DHT22;46566;52.700;6.192;2023-02-26T07:06:34;-0.50;99.90
60717;DHT22;46566;52.700;6.192;2023-02-26T07:09:00;-0.50;99.90
60717;DHT22;46566;52.700;6.192;2023-02-26T07:11:26;-0.40;99.90
60717;DHT22;46566;52.700;6.192;2023-02-26T07:13:51;-0.40;99.90
60717;DHT22;46566;52.700;6.192;2023-02-26T07:16:17;-0.40;99.90
60717;DHT22;46566;52.700;6.192;2023-02-26T07:18:42;-0.40;99.90
60717;DHT22;46566;52.700;6.192;2023-02-26T07:21:08;-0.40;99.90
60717;DHT22;46566;52.700;6.192;2023-02-26T07:23:34;-0.30;99.90
60717;DHT22;46566;52.700;6.192;2023-02-26T07:25:59;-0.30;99.90
60717;DHT22;46566;52.700;6.192;2023-02-26T07:28:25;-0.30;99.90
60717;DHT22;46566;52.700;6.192;2023-02-26T07:30:53;-0.20;99.90
60717;DHT22;46566;52.700;6.192;2023-02-26T07:33:19;-0.30;99.90
60717;DHT22;46566;52.700;6.192;2023-02-26T07:35:46;-0.20;99.90
60717;DHT22;46566;52.700;6.192;2023-02-26T07:38:11;-0.20;99.90
60717;DHT22;46566;52.700;6.192;2023-02-26T07:40:39;-0.20;99.90
60717;DHT22;46566;52.700;6.192;2023-02-26T07:43:05;-0.10;99.90
60717;DHT22;46566;52.700;6.192;2023-02-26T07:45:31;-0.10;99.90
60717;DHT22;46566;52.700;6.192;2023-02-26T07:47:57;-0.10;99.90
60717;DHT22;46566;52.700;6.192;2023-02-26T07:50:23;0.00;99.90
60717;DHT22;46566;52.700;6.192;2023-02-26T07:52:51;0.00;99.90
60717;DHT22;46566;52.700;6.192;2023-02-26T07:55:18;0.10;99.90
60717;DHT22;46566;52.700;6.192;2023-02-26T07:57:44;0.10;99.90
60717;DHT22;46566;52.700;6.192;2023-02-26T08:00:10;0.10;99.90
60717;DHT22;46566;52.700;6.192;2023-02-26T08:02:39;0.20;99.90
60717;DHT22;46566;52.700;6.192;2023-02-26T08:05:05;0.20;99.90
60717;DHT22;46566;52.700;6.192;2023-02-26T08:07:31;0.30;99.90
60717;DHT22;46566;52.700;6.192;2023-02-26T08:09:57;0.30;99.90
60717;DHT22;46566;52.700;6.192;2023-02-26T08:12:23;0.40;99.90
60717;DHT22;46566;52.700;6.192;2023-02-26T08:14:48;0.50;99.90
60717;DHT22;46566;52.700;6.192;2023-02-26T08:17:14;0.50;99.90
60717;DHT22;46566;52.700;6.192;2023-02-26T08:22:06;0.60;99.90
60717;DHT22;46566;52.700;6.192;2023-02-26T08:24:32;0.80;99.90
60717;DHT22;46566;52.700;6.192;2023-02-26T08:26:57;1.10;99.90
60717;DHT22;46566;52.700;6.192;2023-02-26T09:01:07;9.60;62.10
60717;DHT22;46566;52.700;6.192;2023-02-26T09:03:32;9.10;65.40
60717;DHT22;46566;52.700;6.192;2023-02-26T09:05:58;8.40;64.30
60717;DHT22;46566;52.700;6.192;2023-02-26T09:08:24;7.70;69.00
60717;DHT22;46566;52.700;6.192;2023-02-26T09:10:50;7.20;70.30
60717;DHT22;46566;52.700;6.192;2023-02-26T09:13:15;6.90;73.30
60717;DHT22;46566;52.700;6.192;2023-02-26T09:15:41;6.50;80.20
60717;DHT22;46566;52.700;6.192;2023-02-26T09:18:08;6.20;96.20
60717;DHT22;46566;52.700;6.192;2023-02-26T09:20:41;6.10;99.90
60717;DHT22;46566;52.700;6.192;2023-02-26T09:23:07;6.10;99.90
60717;DHT22;46566;52.700;6.192;2023-02-26T09:25:32;6.20;99.90
60717;DHT22;46566;52.700;6.192;2023-02-26T09:27:58;6.30;99.90
60717;DHT22;46566;52.700;6.192;2023-02-26T09:30:24;6.40;99.90
60717;DHT22;46566;52.700;6.192;2023-02-26T09:32:49;6.40;99.90
60717;DHT22;46566;52.700;6.192;2023-02-26T09:35:16;6.40;99.90
60717;DHT22;46566;52.700;6.192;2023-02-26T09:37:42;6.50;99.90
60717;DHT22;46566;52.700;6.192;2023-02-26T09:40:22;6.50;99.90
60717;DHT22;46566;52.700;6.192;2023-02-26T09:43:03;6.60;99.90
60717;DHT22;46566;52.700;6.192;2023-02-26T09:45:33;6.60;99.90
60717;DHT22;46566;52.700;6.192;2023-02-26T09:48:03;6.70;99.90
60717;DHT22;46566;52.700;6.192;2023-02-26T09:50:49;6.90;99.90
60717;DHT22;46566;52.700;6.192;2023-02-26T09:53:22;7.00;99.90
60717;DHT22;46566;52.700;6.192;2023-02-26T09:55:49;7.10;86.90
60717;DHT22;46566;52.700;6.192;2023-02-26T10:06:28;7.40;77.40
60717;DHT22;46566;52.700;6.192;2023-02-26T10:09:40;7.50;75.10
60717;DHT22;46566;52.700;6.192;2023-02-26T10:12:25;7.50;76.30
60717;DHT22;46566;52.700;6.192;2023-02-26T10:14:59;7.60;79.10
60717;DHT22;46566;52.700;6.192;2023-02-26T10:20:13;7.90;73.40
60717;DHT22;46566;52.700;6.192;2023-02-26T10:25:30;8.10;68.00
60717;DHT22;46566;52.700;6.192;2023-02-26T10:30:49;8.20;68.70
60717;DHT22;46566;52.700;6.192;2023-02-26T10:33:29;8.30;67.60
60717;DHT22;46566;52.700;6.192;2023-02-26T10:36:04;8.30;65.90
60717;DHT22;46566;52.700;6.192;2023-02-26T10:38:33;8.40;66.10
60717;DHT22;46566;52.700;6.192;2023-02-26T10:41:12;8.30;64.60
60717;DHT22;46566;52.700;6.192;2023-02-26T10:43:41;8.40;67.00
60717;DHT22;46566;52.700;6.192;2023-02-26T10:46:25;8.30;64.80
60717;DHT22;46566;52.700;6.192;2023-02-26T10:51:38;8.50;67.70
60717;DHT22;46566;52.700;6.192;2023-02-26T10:56:55;8.60;65.90
60717;DHT22;46566;52.700;6.192;2023-02-26T10:59:22;8.60;62.50
60717;DHT22;46566;52.700;6.192;2023-02-26T11:01:49;8.70;62.90
60717;DHT22;46566;52.700;6.192;2023-02-26T11:04:18;8.60;64.10
60717;DHT22;46566;52.700;6.192;2023-02-26T11:06:56;8.70;65.20
60717;DHT22;46566;52.700;6.192;2023-02-26T11:09:34;8.70;62.40
60717;DHT22;46566;52.700;6.192;2023-02-26T11:14:37;8.70;62.90
60717;DHT22;46566;52.700;6.192;2023-02-26T11:17:06;8.60;61.70
60717;DHT22;46566;52.700;6.192;2023-02-26T11:19:37;8.80;63.10
60717;DHT22;46566;52.700;6.192;2023-02-26T11:22:05;8.90;64.10
60717;DHT22;46566;52.700;6.192;2023-02-26T11:24:40;8.90;65.10
60717;DHT22;46566;52.700;6.192;2023-02-26T11:27:18;8.90;64.10
60717;DHT22;46566;52.700;6.192;2023-02-26T11:29:54;8.80;63.20
60717;DHT22;46566;52.700;6.192;2023-02-26T11:32:28;8.80;61.00
60717;DHT22;46566;52.700;6.192;2023-02-26T11:34:54;8.80;63.80
60717;DHT22;46566;52.700;6.192;2023-02-26T11:37:23;8.90;64.60
60717;DHT22;46566;52.700;6.192;2023-02-26T11:39:55;9.00;60.70
60717;DHT22;46566;52.700;6.192;2023-02-26T11:42:22;9.10;61.80
60717;DHT22;46566;52.700;6.192;2023-02-26T11:44:51;9.10;60.50
60717;DHT22;46566;52.700;6.192;2023-02-26T11:47:23;9.10;62.90
60717;DHT22;46566;52.700;6.192;2023-02-26T11:49:54;9.30;63.90
60717;DHT22;46566;52.700;6.192;2023-02-26T11:52:35;9.60;63.80
60717;DHT22;46566;52.700;6.192;2023-02-26T11:55:35;9.80;60.70
60717;DHT22;46566;52.700;6.192;2023-02-26T11:58:10;9.90;60.10
60717;DHT22;46566;52.700;6.192;2023-02-26T12:00:39;10.10;62.90
60717;DHT22;46566;52.700;6.192;2023-02-26T12:03:09;10.40;61.80
60717;DHT22;46566;52.700;6.192;2023-02-26T12:05:40;10.50;61.60
60717;DHT22;46566;52.700;6.192;2023-02-26T12:08:29;10.70;62.90
60717;DHT22;46566;52.700;6.192;2023-02-26T12:11:29;10.80;59.90
60717;DHT22;46566;52.700;6.192;2023-02-26T12:19:47;12.00;61.10
60717;DHT22;46566;52.700;6.192;2023-02-26T12:25:11;12.20;53.80
60717;DHT22;46566;52.700;6.192;2023-02-26T12:51:18;12.30;53.70
60717;DHT22;46566;52.700;6.192;2023-02-26T12:56:47;11.40;57.00
60717;DHT22;46566;52.700;6.192;2023-02-26T13:20:03;11.40;58.10
60717;DHT22;46566;52.700;6.192;2023-02-26T13:23:40;11.70;53.90
60717;DHT22;46566;52.700;6.192;2023-02-26T13:25:55;11.80;55.00
60717;DHT22;46566;52.700;6.192;2023-02-26T13:29:04;12.00;55.10
60717;DHT22;46566;52.700;6.192;2023-02-26T13:31:41;12.20;55.60
60717;DHT22;46566;52.700;6.192;2023-02-26T13:34:15;12.40;56.00
60717;DHT22;46566;52.700;6.192;2023-02-26T13:36:52;12.30;52.50
60717;DHT22;46566;52.700;6.192;2023-02-26T13:42:02;12.00;56.10
60717;DHT22;46566;52.700;6.192;2023-02-26T13:45:06;12.00;58.70
60717;DHT22;46566;52.700;6.192;2023-02-26T13:47:49;11.90;57.20
60717;DHT22;46566;52.700;6.192;2023-02-26T13:50:55;11.60;58.00
60717;DHT22;46566;52.700;6.192;2023-02-26T13:53:47;11.40;58.30
60717;DHT22;46566;52.700;6.192;2023-02-26T13:59:01;11.00;57.80
60717;DHT22;46566;52.700;6.192;2023-02-26T14:01:53;10.70;56.30
60717;DHT22;46566;52.700;6.192;2023-02-26T14:06:53;10.50;58.50
60717;DHT22;46566;52.700;6.192;2023-02-26T14:09:55;10.40;58.30
60717;DHT22;46566;52.700;6.192;2023-02-26T14:12:24;10.30;58.00
60717;DHT22;46566;52.700;6.192;2023-02-26T14:17:37;10.50;60.00
60717;DHT22;46566;52.700;6.192;2023-02-26T14:20:22;10.40;57.10
60717;DHT22;46566;52.700;6.192;2023-02-26T14:23:20;10.30;58.50
60717;DHT22;46566;52.700;6.192;2023-02-26T14:25:52;10.10;58.70
60717;DHT22;46566;52.700;6.192;2023-02-26T14:28:54;9.90;59.80
60717;DHT22;46566;52.700;6.192;2023-02-26T14:31:22;9.60;58.80
60717;DHT22;46566;52.700;6.192;2023-02-26T14:34:05;9.50;59.70
60717;DHT22;46566;52.700;6.192;2023-02-26T14:36:47;9.50;60.50
60717;DHT22;46566;52.700;6.192;2023-02-26T14:39:40;9.40;60.50
60717;DHT22;46566;52.700;6.192;2023-02-26T14:45:36;9.00;59.00
60717;DHT22;46566;52.700;6.192;2023-02-26T14:48:05;8.80;60.70
60717;DHT22;46566;52.700;6.192;2023-02-26T14:50:45;8.60;61.20
60717;DHT22;46566;52.700;6.192;2023-02-26T14:53:49;8.50;63.70
60717;DHT22;46566;52.700;6.192;2023-02-26T14:56:31;8.60;63.60
60717;DHT22;46566;52.700;6.192;2023-02-26T15:02:30;8.40;63.60
60717;DHT22;46566;52.700;6.192;2023-02-26T15:05:06;8.20;64.10
60717;DHT22;46566;52.700;6.192;2023-02-26T15:16:14;7.60;65.70
60717;DHT22;46566;52.700;6.192;2023-02-26T15:21:46;7.40;68.70
60717;DHT22;46566;52.700;6.192;2023-02-26T15:24:14;7.30;67.90
60717;DHT22;46566;52.700;6.192;2023-02-26T15:26:53;7.20;68.90
60717;DHT22;46566;52.700;6.192;2023-02-26T15:29:34;7.10;68.90
60717;DHT22;46566;52.700;6.192;2023-02-26T15:34:45;7.00;70.90
60717;DHT22;46566;52.700;6.192;2023-02-26T15:37:37;6.90;68.80
60717;DHT22;46566;52.700;6.192;2023-02-26T15:40:04;6.70;69.30
60717;DHT22;46566;52.700;6.192;2023-02-26T15:42:38;6.70;70.50
60717;DHT22;46566;52.700;6.192;2023-02-26T15:45:32;6.50;72.50
60717;DHT22;46566;52.700;6.192;2023-02-26T15:48:06;6.40;72.90
60717;DHT22;46566;52.700;6.192;2023-02-26T15:50:56;6.40;73.60
60717;DHT22;46566;52.700;6.192;2023-02-26T15:55:59;6.40;76.50
60717;DHT22;46566;52.700;6.192;2023-02-26T15:58:49;6.30;82.10
60717;DHT22;46566;52.700;6.192;2023-02-26T16:01:19;6.30;79.20
60717;DHT22;46566;52.700;6.192;2023-02-26T16:03:45;6.20;92.00
60717;DHT22;46566;52.700;6.192;2023-02-26T16:06:15;6.20;94.40
60717;DHT22;46566;52.700;6.192;2023-02-26T16:08:58;6.20;93.80
60717;DHT22;46566;52.700;6.192;2023-02-26T16:11:27;6.20;96.00
60717;DHT22;46566;52.700;6.192;2023-02-26T16:13:55;6.10;99.20
60717;DHT22;46566;52.700;6.192;2023-02-26T16:16:25;6.10;99.90
60717;DHT22;46566;52.700;6.192;2023-02-26T16:19:05;6.00;96.10
60717;DHT22;46566;52.700;6.192;2023-02-26T16:21:36;6.00;96.40
60717;DHT22;46566;52.700;6.192;2023-02-26T16:24:05;6.00;93.60
60717;DHT22;46566;52.700;6.192;2023-02-26T16:26:38;5.80;88.90
60717;DHT22;46566;52.700;6.192;2023-02-26T16:29:29;5.80;95.80
60717;DHT22;46566;52.700;6.192;2023-02-26T16:31:59;5.80;99.90
60717;DHT22;46566;52.700;6.192;2023-02-26T16:34:51;5.70;99.90
60717;DHT22;46566;52.700;6.192;2023-02-26T16:40:10;5.60;99.90
60717;DHT22;46566;52.700;6.192;2023-02-26T16:46:06;5.50;99.90
60717;DHT22;46566;52.700;6.192;2023-02-26T16:51:24;5.40;99.90
60717;DHT22;46566;52.700;6.192;2023-02-26T16:54:22;5.30;99.90
60717;DHT22;46566;52.700;6.192;2023-02-26T16:57:04;5.20;99.90
60717;DHT22;46566;52.700;6.192;2023-02-26T16:59:54;5.20;99.90
60717;DHT22;46566;52.700;6.192;2023-02-26T17:02:25;5.20;99.90
60717;DHT22;46566;52.700;6.192;2023-02-26T17:05:20;5.20;99.90
60717;DHT22;46566;52.700;6.192;2023-02-26T17:08:08;5.10;99.90
60717;DHT22;46566;52.700;6.192;2023-02-26T17:10:53;5.10;99.90
60717;DHT22;46566;52.700;6.192;2023-02-26T17:13:28;5.00;99.90
60717;DHT22;46566;52.700;6.192;2023-02-26T17:15:58;5.00;99.90
60717;DHT22;46566;52.700;6.192;2023-02-26T17:18:25;5.00;99.90
60717;DHT22;46566;52.700;6.192;2023-02-26T17:23:41;5.00;99.90
60717;DHT22;46566;52.700;6.192;2023-02-26T17:26:06;5.00;99.90
60717;DHT22;46566;52.700;6.192;2023-02-26T17:28:35;4.90;99.90
60717;DHT22;46566;52.700;6.192;2023-02-26T17:31:02;4.90;99.90
60717;DHT22;46566;52.700;6.192;2023-02-26T17:33:28;4.90;99.90
60717;DHT22;46566;52.700;6.192;2023-02-26T17:36:00;4.90;99.90
60717;DHT22;46566;52.700;6.192;2023-02-26T17:38:26;4.90;99.90
60717;DHT22;46566;52.700;6.192;2023-02-26T17:40:52;4.90;99.90
60717;DHT22;46566;52.700;6.192;2023-02-26T17:43:21;4.80;99.90
60717;DHT22;46566;52.700;6.192;2023-02-26T17:45:47;4.80;99.90
60717;DHT22;46566;52.700;6.192;2023-02-26T17:48:14;4.80;99.90
60717;DHT22;46566;52.700;6.192;2023-02-26T17:50:51;4.70;99.90
60717;DHT22;46566;52.700;6.192;2023-02-26T17:53:18;4.70;99.90
60717;DHT22;46566;52.700;6.192;2023-02-26T17:55:45;4.60;99.90
60717;DHT22;46566;52.700;6.192;2023-02-26T17:58:17;4.60;99.90
60717;DHT22;46566;52.700;6.192;2023-02-26T18:00:43;4.60;99.90
60717;DHT22;46566;52.700;6.192;2023-02-26T18:03:14;4.60;99.90
60717;DHT22;46566;52.700;6.192;2023-02-26T18:05:40;4.60;99.90
60717;DHT22;46566;52.700;6.192;2023-02-26T18:10:42;4.60;99.90
60717;DHT22;46566;52.700;6.192;2023-02-26T18:13:09;4.60;99.90
60717;DHT22;46566;52.700;6.192;2023-02-26T18:15:35;4.60;99.90
60717;DHT22;46566;52.700;6.192;2023-02-26T18:18:01;4.60;99.90
60717;DHT22;46566;52.700;6.192;2023-02-26T18:20:27;4.60;99.90
60717;DHT22;46566;52.700;6.192;2023-02-26T18:22:54;4.60;99.90
60717;DHT22;46566;52.700;6.192;2023-02-26T18:25:20;4.60;99.90
60717;DHT22;46566;52.700;6.192;2023-02-26T18:27:49;4.50;99.90
60717;DHT22;46566;52.700;6.192;2023-02-26T18:30:23;4.50;99.90
60717;DHT22;46566;52.700;6.192;2023-02-26T18:32:50;4.40;99.90
60717;DHT22;46566;52.700;6.192;2023-02-26T18:35:16;4.40;99.90
60717;DHT22;46566;52.700;6.192;2023-02-26T18:37:43;4.40;99.90
60717;DHT22;46566;52.700;6.192;2023-02-26T18:40:17;4.40;99.90
60717;DHT22;46566;52.700;6.192;2023-02-26T18:42:44;4.30;99.90
60717;DHT22;46566;52.700;6.192;2023-02-26T18:45:10;4.30;99.90
60717;DHT22;46566;52.700;6.192;2023-02-26T18:47:37;4.40;99.90
60717;DHT22;46566;52.700;6.192;2023-02-26T18:50:04;4.30;99.90
60717;DHT22;46566;52.700;6.192;2023-02-26T18:52:30;4.30;99.90
60717;DHT22;46566;52.700;6.192;2023-02-26T18:54:55;4.30;99.90
60717;DHT22;46566;52.700;6.192;2023-02-26T18:57:21;4.30;99.90
60717;DHT22;46566;52.700;6.192;2023-02-26T18:59:47;4.20;99.90
60717;DHT22;46566;52.700;6.192;2023-02-26T19:02:13;4.20;99.90
60717;DHT22;46566;52.700;6.192;2023-02-26T19:04:39;4.10;99.90
60717;DHT22;46566;52.700;6.192;2023-02-26T19:07:06;4.10;99.90
60717;DHT22;46566;52.700;6.192;2023-02-26T19:09:32;4.10;99.90
60717;DHT22;46566;52.700;6.192;2023-02-26T19:12:00;4.00;99.90
60717;DHT22;46566;52.700;6.192;2023-02-26T19:14:26;4.00;99.90
60717;DHT22;46566;52.700;6.192;2023-02-26T19:16:52;3.90;99.90
60717;DHT22;46566;52.700;6.192;2023-02-26T19:19:20;3.90;99.90
60717;DHT22;46566;52.700;6.192;2023-02-26T19:21:46;3.80;99.90
60717;DHT22;46566;52.700;6.192;2023-02-26T19:24:13;3.80;99.90
60717;DHT22;46566;52.700;6.192;2023-02-26T19:26:39;3.70;99.90
60717;DHT22;46566;52.700;6.192;2023-02-26T19:29:07;3.70;99.90
60717;DHT22;46566;52.700;6.192;2023-02-26T19:31:33;3.60;99.90